Time;durP1;ratioP1;P1;durP2;ratioP2;P2;SDS_P1;SDS_P2;PMS_P1;PMS_P2;Temp;Humidity;BMP_temperature;BMP_pressure;BME280_temperature;BME280_humidity;BME280_pressure;Samples;Min_cycle;Max_cycle;Signal;HPM_P1;HPM_P2
2021/12/14 00:01:45;;;;;;;70.55;25.50;;;1.90;99.90;;;;;;20627600;28;20037;-79
2021/12/14 00:22:28;;;;;;;69.05;27.02;;;1.80;99.90;;;;;;20688260;28;20417;-79
2021/12/14 00:32:34;;;;;;;83.72;27.92;;;1.50;99.90;;;;;;20703519;28;20034;-79
2021/12/14 00:42:35;;;;;;;64.55;25.02;;;1.40;99.90;;;;;;20701470;28;20038;-79
2021/12/14 00:52:36;;;;;;;56.78;25.05;;;1.10;99.90;;;;;;20701206;28;20030;-79
2021/12/14 01:02:39;;;;;;;59.92;24.67;;;0.90;99.90;;;;;;20699097;28;20057;-79
2021/12/14 01:12:48;;;;;;;62.33;25.17;;;0.90;99.90;;;;;;20701964;28;20465;-80
2021/12/14 01:22:59;;;;;;;67.30;24.92;;;0.90;99.90;;;;;;20700896;28;20128;-78
2021/12/14 01:33:06;;;;;;;59.20;23.70;;;1.00;99.90;;;;;;20701027;28;20030;-79
2021/12/14 01:43:07;;;;;;;57.17;22.58;;;1.00;99.90;;;;;;20697861;28;20576;-79
2021/12/14 01:53:13;;;;;;;58.10;22.13;;;1.00;99.90;;;;;;20697659;28;20034;-79
2021/12/14 02:03:16;;;;;;;51.20;21.05;;;1.10;99.90;;;;;;20698782;28;20034;-79
2021/12/14 02:13:45;;;;;;;60.97;22.75;;;1.00;99.90;;;;;;20697670;28;20037;-79
2021/12/14 02:23:53;;;;;;;55.80;22.67;;;0.90;99.90;;;;;;20696621;28;20046;-79
2021/12/14 02:33:56;;;;;;;50.22;22.77;;;0.80;99.90;;;;;;20680036;28;20034;-79
2021/12/14 02:43:59;;;;;;;53.05;20.67;;;0.90;99.90;;;;;;20698077;28;20084;-79
2021/12/14 02:54:13;;;;;;;54.92;22.20;;;0.80;99.90;;;;;;20697119;28;20045;-79
2021/12/14 03:04:15;;;;;;;55.72;21.80;;;0.90;99.90;;;;;;20680108;28;20030;-79
2021/12/14 03:14:16;;;;;;;57.88;21.88;;;1.00;99.90;;;;;;20694553;28;20026;-79
2021/12/14 03:24:19;;;;;;;59.15;21.10;;;0.90;99.90;;;;;;20691835;28;20445;-79
2021/12/14 03:34:27;;;;;;;61.15;21.38;;;0.90;99.90;;;;;;20708965;28;20497;-79
2021/12/14 03:44:40;;;;;;;60.15;24.10;;;0.80;99.90;;;;;;20707104;28;20058;-78
2021/12/14 03:54:42;;;;;;;65.75;24.33;;;0.80;99.90;;;;;;20706973;28;20452;-80
2021/12/14 04:05:03;;;;;;;64.50;23.77;;;0.70;99.90;;;;;;20704065;28;20038;-80
2021/12/14 04:15:08;;;;;;;58.80;24.45;;;0.60;99.90;;;;;;20704397;28;20030;-79
2021/12/14 04:25:13;;;;;;;54.78;22.75;;;0.60;99.90;;;;;;20704458;28;20077;-79
2021/12/14 04:35:14;;;;;;;52.78;22.17;;;0.50;99.90;;;;;;20699078;28;20034;-80
2021/12/14 04:55:46;;;;;;;57.55;22.88;;;0.50;99.90;;;;;;20669038;28;20576;-77
2021/12/14 05:05:50;;;;;;;60.33;24.33;;;0.40;99.90;;;;;;20668252;28;20645;-77
2021/12/14 05:16:03;;;;;;;64.53;25.30;;;0.40;99.90;;;;;;20672829;28;20038;-79
2021/12/14 05:26:07;;;;;;;57.58;23.77;;;0.40;99.90;;;;;;20677595;28;20034;-78
2021/12/14 05:36:18;;;;;;;51.15;21.33;;;0.40;99.90;;;;;;20676011;28;20037;-78
2021/12/14 05:46:21;;;;;;;;;;;0.40;99.90;;;;;;20679427;28;20027;-78
2021/12/14 05:56:41;;;;;;;46.30;21.70;;;0.30;99.90;;;;;;20685434;28;19956;-79
2021/12/14 06:06:47;;;;;;;51.85;21.73;;;0.00;99.90;;;;;;20685481;28;20050;-78
2021/12/14 06:16:51;;;;;;;50.22;22.35;;;0.10;99.90;;;;;;20647295;28;20526;-79
2021/12/14 06:26:55;;;;;;;45.08;20.80;;;0.10;99.90;;;;;;20648960;28;20030;-79
2021/12/14 06:37:31;;;;;;;45.75;19.95;;;0.10;99.90;;;;;;20651716;28;20389;-78
2021/12/14 06:47:32;;;;;;;39.65;20.08;;;0.10;99.90;;;;;;20597141;28;20031;-78
2021/12/14 06:57:34;;;;;;;49.17;20.92;;;0.00;99.90;;;;;;20601076;28;20109;-78
2021/12/14 07:07:41;;;;;;;49.15;20.42;;;0.10;99.90;;;;;;20617318;28;20450;-77
2021/12/14 07:17:59;;;;;;;47.45;20.38;;;0.20;99.90;;;;;;20608761;28;20521;-78
2021/12/14 07:28:06;;;;;;;44.55;19.83;;;0.20;99.90;;;;;;20609830;28;20039;-78
2021/12/14 07:38:25;;;;;;;40.88;18.48;;;0.20;99.90;;;;;;20607761;28;20116;-78
2021/12/14 07:48:46;;;;;;;41.13;19.95;;;0.30;99.90;;;;;;20604749;28;20034;-78
2021/12/14 07:58:48;;;;;;;;;;;0.30;99.90;;;;;;20607155;28;20034;-78
2021/12/14 08:08:54;;;;;;;45.55;21.52;;;0.30;99.90;;;;;;20603843;28;20441;-78
2021/12/14 08:18:55;;;;;;;50.88;22.35;;;0.30;99.90;;;;;;20603446;28;20538;-78
2021/12/14 08:29:00;;;;;;;46.70;22.58;;;0.20;99.90;;;;;;20603496;28;20040;-78
2021/12/14 08:39:13;;;;;;;52.72;22.00;;;0.20;99.90;;;;;;20607504;28;20036;-78
2021/12/14 08:49:15;;;;;;;46.33;20.95;;;0.30;99.90;;;;;;20598431;28;20037;-76
2021/12/14 08:59:17;;;;;;;58.72;23.88;;;0.30;99.90;;;;;;20589652;28;20493;-78
2021/12/14 09:09:21;;;;;;;44.65;18.40;;;0.30;99.90;;;;;;20589103;28;20038;-78
2021/12/14 09:19:32;;;;;;;45.08;20.60;;;0.40;99.90;;;;;;20588237;28;20039;-78
2021/12/14 09:29:34;;;;;;;56.65;22.98;;;0.50;99.90;;;;;;20623957;28;20035;-78
2021/12/14 09:39:39;;;;;;;59.00;21.40;;;0.50;99.90;;;;;;20616071;28;20953;-78
2021/12/14 09:49:43;;;;;;;64.43;24.98;;;0.50;99.90;;;;;;20614352;28;20535;-78
2021/12/14 09:59:44;;;;;;;67.03;27.00;;;0.50;99.90;;;;;;20592651;28;20042;-77
2021/12/14 10:09:48;;;;;;;67.07;26.15;;;0.90;99.90;;;;;;20594747;28;20041;-78
2021/12/14 10:19:49;;;;;;;50.35;23.38;;;1.00;99.90;;;;;;20596902;28;20584;-78
2021/12/14 10:29:51;;;;;;;49.67;22.20;;;1.00;99.90;;;;;;20588671;28;20033;-77
2021/12/14 10:50:18;;;;;;;55.63;23.02;;;1.10;99.90;;;;;;20586270;28;20053;-77
2021/12/14 11:00:31;;;;;;;47.92;21.77;;;1.30;99.90;;;;;;20608082;28;20680;-78
2021/12/14 11:10:36;;;;;;;56.05;25.35;;;1.50;99.90;;;;;;20589586;28;20584;-77
2021/12/14 11:20:51;;;;;;;44.50;20.38;;;1.60;99.90;;;;;;20591872;28;20042;-78
2021/12/14 11:31:01;;;;;;;46.80;20.20;;;1.90;99.90;;;;;;20591578;28;20027;-79
2021/12/14 11:41:38;;;;;;;42.33;19.80;;;1.90;99.90;;;;;;20597782;28;21007;-78
2021/12/14 11:51:41;;;;;;;42.55;19.08;;;1.90;99.90;;;;;;20606547;28;20054;-77
2021/12/14 12:01:47;;;;;;;50.58;20.35;;;1.90;99.90;;;;;;20607787;28;20066;-78
2021/12/14 12:11:49;;;;;;;42.38;20.15;;;1.90;99.90;;;;;;20615542;28;20038;-78
2021/12/14 12:21:51;;;;;;;45.42;19.48;;;1.90;99.90;;;;;;20621609;28;20045;-79
2021/12/14 12:31:59;;;;;;;34.17;18.05;;;2.20;99.90;;;;;;20598639;28;20035;-78
2021/12/14 12:42:04;;;;;;;36.10;17.55;;;2.50;99.90;;;;;;20623552;28;20030;-79
2021/12/14 12:52:14;;;;;;;41.25;19.90;;;2.50;99.90;;;;;;20676558;28;20050;-79
2021/12/14 13:02:29;;;;;;;45.88;20.73;;;2.10;99.90;;;;;;20676155;28;20038;-78
2021/12/14 13:12:51;;;;;;;40.63;18.60;;;2.40;99.90;;;;;;20673648;28;20038;-78
2021/12/14 13:22:51;;;;;;;40.55;19.77;;;2.40;99.90;;;;;;20670857;28;20053;-78
2021/12/14 13:32:52;;;;;;;35.83;17.20;;;2.30;99.90;;;;;;20667501;28;20030;-77
2021/12/14 13:43:11;;;;;;;38.67;16.55;;;2.40;99.90;;;;;;20666989;28;20026;-77
2021/12/14 13:53:12;;;;;;;43.28;18.35;;;2.50;99.90;;;;;;20666525;28;20034;-77
2021/12/14 14:03:14;;;;;;;34.50;16.58;;;2.50;99.90;;;;;;20665977;28;20080;-78
2021/12/14 14:13:30;;;;;;;37.72;17.95;;;2.60;99.90;;;;;;20664621;28;20161;-77
2021/12/14 14:23:47;;;;;;;53.40;20.52;;;2.80;99.90;;;;;;20664089;28;20045;-78
2021/12/14 14:33:53;;;;;;;63.83;24.80;;;3.00;99.90;;;;;;20663589;28;20513;-78
2021/12/14 14:44:00;;;;;;;33.30;16.63;;;2.80;99.90;;;;;;20662918;28;20030;-78
2021/12/14 14:54:00;;;;;;;49.85;19.90;;;2.70;99.90;;;;;;20662675;28;20389;-77
2021/12/14 15:04:02;;;;;;;47.58;20.45;;;2.20;99.90;;;;;;20662397;28;20040;-77
2021/12/14 15:14:05;;;;;;;40.72;18.58;;;2.10;99.90;;;;;;20661869;28;20034;-78
2021/12/14 15:24:24;;;;;;;38.38;19.75;;;1.90;99.90;;;;;;20647499;28;20404;-77
2021/12/14 15:34:51;;;;;;;40.45;19.88;;;1.70;99.90;;;;;;20606854;28;20044;-78
2021/12/14 15:44:52;;;;;;;48.67;21.80;;;1.60;99.90;;;;;;20595713;28;20030;-77
2021/12/14 15:54:54;;;;;;;39.88;19.50;;;1.40;99.90;;;;;;20595043;28;20034;-78
2021/12/14 16:04:59;;;;;;;41.78;19.30;;;1.40;99.90;;;;;;20594208;28;20113;-77
2021/12/14 16:15:15;;;;;;;40.63;18.08;;;1.40;99.90;;;;;;20593461;28;20081;-77
2021/12/14 16:25:28;;;;;;;43.25;19.90;;;1.30;99.90;;;;;;20592414;28;20106;-77
2021/12/14 16:35:29;;;;;;;49.35;20.88;;;1.30;99.90;;;;;;20591951;28;20066;-77
2021/12/14 16:45:32;;;;;;;42.55;18.67;;;1.30;99.90;;;;;;20591352;28;20502;-77
2021/12/14 16:55:37;;;;;;;45.08;19.98;;;1.20;99.90;;;;;;20590525;28;20169;-78
2021/12/14 17:05:43;;;;;;;38.25;18.45;;;1.20;99.90;;;;;;20590279;28;20094;-77
2021/12/14 17:15:48;;;;;;;43.35;18.10;;;1.20;99.90;;;;;;20659547;28;20026;-78
2021/12/14 17:25:51;;;;;;;40.63;17.40;;;1.20;99.90;;;;;;20671567;28;20038;-78
2021/12/14 17:35:52;;;;;;;70.05;28.23;;;1.40;99.90;;;;;;20669419;28;20061;-78
2021/12/14 17:45:53;;;;;;;58.78;23.30;;;1.40;99.90;;;;;;20666492;28;20031;-79
2021/12/14 17:55:58;;;;;;;57.33;25.42;;;1.40;99.90;;;;;;20665919;28;20041;-78
2021/12/14 18:06:03;;;;;;;42.03;19.02;;;1.40;99.90;;;;;;20663596;28;20084;-78
2021/12/14 18:16:12;;;;;;;43.13;19.50;;;1.40;99.90;;;;;;20664134;28;20105;-79
2021/12/14 18:26:18;;;;;;;35.55;16.67;;;1.40;99.90;;;;;;20614655;28;20038;-78
2021/12/14 18:36:32;;;;;;;49.60;21.23;;;1.40;99.90;;;;;;20582740;28;20030;-79
2021/12/14 18:46:52;;;;;;;42.95;18.30;;;1.50;99.90;;;;;;20653315;28;20056;-78
2021/12/14 18:57:03;;;;;;;47.50;18.15;;;1.50;99.90;;;;;;20620724;28;20114;-78
2021/12/14 19:07:05;;;;;;;44.47;18.85;;;1.60;99.90;;;;;;20580219;28;20066;-77
2021/12/14 19:17:09;;;;;;;40.97;17.25;;;1.60;99.90;;;;;;20580811;28;20502;-77
2021/12/14 19:27:26;;;;;;;48.63;18.77;;;1.60;99.90;;;;;;20580243;28;20093;-77
2021/12/14 19:37:34;;;;;;;46.25;18.42;;;1.60;99.90;;;;;;20580039;28;20042;-78
2021/12/14 19:47:38;;;;;;;61.38;24.73;;;1.60;99.90;;;;;;20579601;28;20724;-77
2021/12/14 19:57:43;;;;;;;46.80;18.02;;;1.70;99.90;;;;;;20578088;28;20528;-77
2021/12/14 20:07:44;;;;;;;34.92;15.13;;;1.70;99.90;;;;;;20581931;28;20493;-77
2021/12/14 20:17:49;;;;;;;34.15;15.52;;;1.70;99.90;;;;;;20663702;28;20070;-77
2021/12/14 20:27:55;;;;;;;38.75;16.50;;;1.60;99.90;;;;;;20671603;28;20042;-78
2021/12/14 20:38:03;;;;;;;43.03;18.52;;;1.70;99.90;;;;;;20671971;28;20061;-77
2021/12/14 20:48:05;;;;;;;55.00;20.50;;;1.50;99.90;;;;;;20670291;28;20565;-77
2021/12/14 20:58:12;;;;;;;46.70;20.25;;;1.30;99.90;;;;;;20667926;28;20043;-75
2021/12/14 21:08:16;;;;;;;51.30;20.77;;;1.30;99.90;;;;;;20589307;28;20046;-77
2021/12/14 21:18:17;;;;;;;58.97;22.05;;;1.30;99.90;;;;;;20587495;28;20045;-77
2021/12/14 21:28:18;;;;;;;56.33;20.80;;;1.20;99.90;;;;;;20587957;28;20118;-77
2021/12/14 21:38:43;;;;;;;52.72;20.70;;;1.30;99.90;;;;;;20587219;28;20110;-79
2021/12/14 21:48:50;;;;;;;38.85;17.00;;;1.40;99.90;;;;;;20580782;28;20043;-78
2021/12/14 21:58:51;;;;;;;40.30;17.38;;;1.40;99.90;;;;;;20585972;28;20035;-79
2021/12/14 22:08:53;;;;;;;70.50;27.10;;;1.40;99.90;;;;;;20593569;28;20081;-78
2021/12/14 22:18:54;;;;;;;41.40;17.23;;;1.30;99.90;;;;;;20595343;28;20224;-79
2021/12/14 22:28:56;;;;;;;55.05;17.00;;;1.40;99.90;;;;;;20593803;28;20593;-79
2021/12/14 22:38:57;;;;;;;41.42;16.65;;;1.50;99.90;;;;;;20593864;28;20027;-79
2021/12/14 22:49:06;;;;;;;31.55;15.18;;;1.40;99.90;;;;;;20594574;28;20031;-78
2021/12/14 22:59:08;;;;;;;29.38;12.95;;;1.40;99.90;;;;;;20596777;28;20042;-79
2021/12/14 23:09:13;;;;;;;33.42;13.85;;;1.30;99.90;;;;;;20596075;28;20034;-77
2021/12/14 23:19:32;;;;;;;41.72;15.82;;;1.30;99.90;;;;;;20587208;28;20038;-78
2021/12/14 23:29:33;;;;;;;42.78;14.98;;;1.30;99.90;;;;;;20586227;28;20054;-78
2021/12/14 23:39:38;;;;;;;38.30;15.73;;;1.10;99.90;;;;;;20585896;28;20084;-78
2021/12/14 23:49:39;;;;;;;42.72;15.05;;;1.00;99.90;;;;;;20651491;28;20061;-78
2021/12/14 23:59:40;;;;;;;33.70;15.00;;;1.00;99.90;;;;;;20634952;28;20034;-78
